sensor_id;sensor_type;location;lat;lon;timestamp;temperature;humidity
28654;DHT22;24320;56.980;24.336;2022-09-17T00:01:20;11.50;99.90
28654;DHT22;24320;56.980;24.336;2022-09-17T00:03:49;11.50;99.90
28654;DHT22;24320;56.980;24.336;2022-09-17T00:06:25;11.50;99.90
28654;DHT22;24320;56.980;24.336;2022-09-17T00:08:53;11.40;99.90
28654;DHT22;24320;56.980;24.336;2022-09-17T00:11:25;11.40;99.90
28654;DHT22;24320;56.980;24.336;2022-09-17T00:13:54;11.40;99.90
28654;DHT22;24320;56.980;24.336;2022-09-17T00:18:54;11.40;99.90
28654;DHT22;24320;56.980;24.336;2022-09-17T00:21:21;11.30;99.90
28654;DHT22;24320;56.980;24.336;2022-09-17T00:23:52;11.30;99.90
28654;DHT22;24320;56.980;24.336;2022-09-17T00:26:19;11.30;99.90
28654;DHT22;24320;56.980;24.336;2022-09-17T00:28:54;11.40;99.90
28654;DHT22;24320;56.980;24.336;2022-09-17T00:31:22;11.40;99.90
28654;DHT22;24320;56.980;24.336;2022-09-17T00:33:50;11.40;99.90
28654;DHT22;24320;56.980;24.336;2022-09-17T00:36:17;11.40;99.90
28654;DHT22;24320;56.980;24.336;2022-09-17T00:38:57;11.40;99.90
28654;DHT22;24320;56.980;24.336;2022-09-17T00:41:32;11.40;99.90
28654;DHT22;24320;56.980;24.336;2022-09-17T00:44:34;11.40;99.90
28654;DHT22;24320;56.980;24.336;2022-09-17T00:46:48;11.40;99.90
28654;DHT22;24320;56.980;24.336;2022-09-17T00:49:21;11.40;99.90
28654;DHT22;24320;56.980;24.336;2022-09-17T00:51:56;11.40;99.90
28654;DHT22;24320;56.980;24.336;2022-09-17T00:54:27;11.40;99.90
28654;DHT22;24320;56.980;24.336;2022-09-17T00:56:55;11.40;99.90
28654;DHT22;24320;56.980;24.336;2022-09-17T00:59:24;11.40;99.90
28654;DHT22;24320;56.980;24.336;2022-09-17T01:01:51;11.40;99.90
28654;DHT22;24320;56.980;24.336;2022-09-17T01:04:21;11.40;99.90
28654;DHT22;24320;56.980;24.336;2022-09-17T01:07:11;11.40;99.90
28654;DHT22;24320;56.980;24.336;2022-09-17T01:37:11;11.30;99.90
28654;DHT22;24320;56.980;24.336;2022-09-17T01:39:54;11.30;99.90
28654;DHT22;24320;56.980;24.336;2022-09-17T01:42:29;11.30;99.90
28654;DHT22;24320;56.980;24.336;2022-09-17T01:45:08;11.30;99.90
28654;DHT22;24320;56.980;24.336;2022-09-17T01:47:56;11.30;99.90
28654;DHT22;24320;56.980;24.336;2022-09-17T01:50:32;11.30;99.90
28654;DHT22;24320;56.980;24.336;2022-09-17T01:53:03;11.30;99.90
28654;DHT22;24320;56.980;24.336;2022-09-17T01:55:36;11.30;99.90
28654;DHT22;24320;56.980;24.336;2022-09-17T01:58:12;11.40;99.90
28654;DHT22;24320;56.980;24.336;2022-09-17T02:00:45;11.30;99.90
28654;DHT22;24320;56.980;24.336;2022-09-17T02:06:24;11.30;99.90
28654;DHT22;24320;56.980;24.336;2022-09-17T02:09:16;11.30;99.90
28654;DHT22;24320;56.980;24.336;2022-09-17T02:11:50;11.30;99.90
28654;DHT22;24320;56.980;24.336;2022-09-17T02:14:22;11.30;99.90
28654;DHT22;24320;56.980;24.336;2022-09-17T02:16:54;11.30;99.90
28654;DHT22;24320;56.980;24.336;2022-09-17T02:19:29;11.20;99.90
28654;DHT22;24320;56.980;24.336;2022-09-17T02:29:52;11.20;99.90
28654;DHT22;24320;56.980;24.336;2022-09-17T02:32:19;11.20;99.90
28654;DHT22;24320;56.980;24.336;2022-09-17T02:34:46;11.20;99.90
28654;DHT22;24320;56.980;24.336;2022-09-17T02:37:13;11.20;99.90
28654;DHT22;24320;56.980;24.336;2022-09-17T02:39:41;11.10;99.90
28654;DHT22;24320;56.980;24.336;2022-09-17T02:55:40;11.10;99.90
28654;DHT22;24320;56.980;24.336;2022-09-17T02:58:28;11.00;99.90
28654;DHT22;24320;56.980;24.336;2022-09-17T03:01:02;11.10;99.90
28654;DHT22;24320;56.980;24.336;2022-09-17T03:03:37;11.00;99.90
28654;DHT22;24320;56.980;24.336;2022-09-17T03:06:05;11.00;99.90
28654;DHT22;24320;56.980;24.336;2022-09-17T03:08:35;11.00;99.90
28654;DHT22;24320;56.980;24.336;2022-09-17T03:11:03;11.00;99.90
28654;DHT22;24320;56.980;24.336;2022-09-17T03:13:31;11.00;99.90
28654;DHT22;24320;56.980;24.336;2022-09-17T03:15:58;11.00;99.90
28654;DHT22;24320;56.980;24.336;2022-09-17T03:18:25;11.00;99.90
28654;DHT22;24320;56.980;24.336;2022-09-17T03:20:52;11.00;99.90
28654;DHT22;24320;56.980;24.336;2022-09-17T03:23:19;11.00;99.90
28654;DHT22;24320;56.980;24.336;2022-09-17T03:25:46;11.00;99.90
28654;DHT22;24320;56.980;24.336;2022-09-17T03:28:15;11.00;99.90
28654;DHT22;24320;56.980;24.336;2022-09-17T03:30:45;11.00;99.90
28654;DHT22;24320;56.980;24.336;2022-09-17T03:33:12;10.90;99.90
28654;DHT22;24320;56.980;24.336;2022-09-17T03:35:43;10.90;99.90
28654;DHT22;24320;56.980;24.336;2022-09-17T03:38:11;10.90;99.90
28654;DHT22;24320;56.980;24.336;2022-09-17T03:40:38;11.00;99.90
28654;DHT22;24320;56.980;24.336;2022-09-17T03:43:06;11.00;99.90
28654;DHT22;24320;56.980;24.336;2022-09-17T03:45:33;11.00;99.90
28654;DHT22;24320;56.980;24.336;2022-09-17T03:48:00;11.00;99.90
28654;DHT22;24320;56.980;24.336;2022-09-17T03:50:28;11.00;99.90
28654;DHT22;24320;56.980;24.336;2022-09-17T03:52:55;11.00;99.90
28654;DHT22;24320;56.980;24.336;2022-09-17T03:55:22;10.90;99.90
28654;DHT22;24320;56.980;24.336;2022-09-17T03:57:49;10.90;99.90
28654;DHT22;24320;56.980;24.336;2022-09-17T04:00:17;10.90;99.90
28654;DHT22;24320;56.980;24.336;2022-09-17T04:02:44;10.90;99.90
28654;DHT22;24320;56.980;24.336;2022-09-17T04:05:11;10.90;99.90
28654;DHT22;24320;56.980;24.336;2022-09-17T04:07:39;10.90;99.90
28654;DHT22;24320;56.980;24.336;2022-09-17T04:10:07;10.90;99.90
28654;DHT22;24320;56.980;24.336;2022-09-17T04:12:35;10.80;99.90
28654;DHT22;24320;56.980;24.336;2022-09-17T04:15:02;10.80;99.90
28654;DHT22;24320;56.980;24.336;2022-09-17T04:17:29;10.80;99.90
28654;DHT22;24320;56.980;24.336;2022-09-17T04:19:57;10.80;99.90
28654;DHT22;24320;56.980;24.336;2022-09-17T04:22:24;10.80;99.90
28654;DHT22;24320;56.980;24.336;2022-09-17T04:24:51;10.80;99.90
28654;DHT22;24320;56.980;24.336;2022-09-17T04:27:18;10.80;99.90
28654;DHT22;24320;56.980;24.336;2022-09-17T04:29:45;10.80;99.90
28654;DHT22;24320;56.980;24.336;2022-09-17T04:32:12;10.90;99.90
28654;DHT22;24320;56.980;24.336;2022-09-17T04:34:39;10.90;99.90
28654;DHT22;24320;56.980;24.336;2022-09-17T04:37:06;10.90;99.90
28654;DHT22;24320;56.980;24.336;2022-09-17T04:39:33;10.90;99.90
28654;DHT22;24320;56.980;24.336;2022-09-17T04:42:00;10.90;99.90
28654;DHT22;24320;56.980;24.336;2022-09-17T04:44:27;10.90;99.90
28654;DHT22;24320;56.980;24.336;2022-09-17T04:46:54;10.90;99.90
28654;DHT22;24320;56.980;24.336;2022-09-17T04:49:21;10.90;99.90
28654;DHT22;24320;56.980;24.336;2022-09-17T04:51:48;10.90;99.90
28654;DHT22;24320;56.980;24.336;2022-09-17T04:54:15;10.90;99.90
28654;DHT22;24320;56.980;24.336;2022-09-17T04:56:42;11.00;99.90
28654;DHT22;24320;56.980;24.336;2022-09-17T04:59:09;11.00;99.90
28654;DHT22;24320;56.980;24.336;2022-09-17T05:01:36;11.00;99.90
28654;DHT22;24320;56.980;24.336;2022-09-17T05:04:03;11.00;99.90
28654;DHT22;24320;56.980;24.336;2022-09-17T05:06:30;11.00;99.90
28654;DHT22;24320;56.980;24.336;2022-09-17T05:08:57;11.00;99.90
28654;DHT22;24320;56.980;24.336;2022-09-17T05:11:24;11.10;99.90
28654;DHT22;24320;56.980;24.336;2022-09-17T05:13:51;11.10;99.90
28654;DHT22;24320;56.980;24.336;2022-09-17T05:16:18;11.20;99.90
28654;DHT22;24320;56.980;24.336;2022-09-17T05:18:46;11.20;99.90
28654;DHT22;24320;56.980;24.336;2022-09-17T05:21:15;11.30;99.90
28654;DHT22;24320;56.980;24.336;2022-09-17T05:23:42;11.30;99.90
28654;DHT22;24320;56.980;24.336;2022-09-17T05:26:09;11.30;99.90
28654;DHT22;24320;56.980;24.336;2022-09-17T05:28:36;11.40;99.90
28654;DHT22;24320;56.980;24.336;2022-09-17T05:31:03;11.40;99.90
28654;DHT22;24320;56.980;24.336;2022-09-17T05:33:30;11.40;99.90
28654;DHT22;24320;56.980;24.336;2022-09-17T05:35:57;11.50;99.90
28654;DHT22;24320;56.980;24.336;2022-09-17T05:38:25;11.50;99.90
28654;DHT22;24320;56.980;24.336;2022-09-17T05:40:52;11.50;99.90
28654;DHT22;24320;56.980;24.336;2022-09-17T05:43:19;11.60;99.90
28654;DHT22;24320;56.980;24.336;2022-09-17T05:45:46;11.60;99.90
28654;DHT22;24320;56.980;24.336;2022-09-17T05:48:14;11.70;99.90
28654;DHT22;24320;56.980;24.336;2022-09-17T05:50:41;11.70;99.90
28654;DHT22;24320;56.980;24.336;2022-09-17T05:53:12;11.80;99.90
28654;DHT22;24320;56.980;24.336;2022-09-17T05:55:39;11.90;99.90
28654;DHT22;24320;56.980;24.336;2022-09-17T05:58:16;12.00;99.90
28654;DHT22;24320;56.980;24.336;2022-09-17T06:00:45;12.00;99.90
28654;DHT22;24320;56.980;24.336;2022-09-17T06:03:14;12.10;99.90
28654;DHT22;24320;56.980;24.336;2022-09-17T06:05:41;12.10;99.90
28654;DHT22;24320;56.980;24.336;2022-09-17T06:08:08;12.20;99.90
28654;DHT22;24320;56.980;24.336;2022-09-17T06:10:37;12.20;99.90
28654;DHT22;24320;56.980;24.336;2022-09-17T06:13:04;12.30;99.90
28654;DHT22;24320;56.980;24.336;2022-09-17T06:15:31;12.40;99.90
28654;DHT22;24320;56.980;24.336;2022-09-17T06:17:58;12.50;99.90
28654;DHT22;24320;56.980;24.336;2022-09-17T06:20:25;12.50;99.90
28654;DHT22;24320;56.980;24.336;2022-09-17T06:22:56;12.60;99.90
28654;DHT22;24320;56.980;24.336;2022-09-17T06:25:24;12.60;99.90
28654;DHT22;24320;56.980;24.336;2022-09-17T06:27:52;12.80;99.90
28654;DHT22;24320;56.980;24.336;2022-09-17T06:30:19;12.90;99.90
28654;DHT22;24320;56.980;24.336;2022-09-17T06:32:45;12.90;99.90
28654;DHT22;24320;56.980;24.336;2022-09-17T06:35:12;13.00;99.90
28654;DHT22;24320;56.980;24.336;2022-09-17T06:37:39;13.20;99.90
28654;DHT22;24320;56.980;24.336;2022-09-17T06:40:07;13.30;99.90
28654;DHT22;24320;56.980;24.336;2022-09-17T06:42:34;13.30;99.90
28654;DHT22;24320;56.980;24.336;2022-09-17T06:45:02;13.30;99.90
28654;DHT22;24320;56.980;24.336;2022-09-17T06:47:35;13.30;99.90
28654;DHT22;24320;56.980;24.336;2022-09-17T06:50:02;13.40;99.90
28654;DHT22;24320;56.980;24.336;2022-09-17T06:52:29;13.50;99.90
28654;DHT22;24320;56.980;24.336;2022-09-17T06:54:56;13.50;99.90
28654;DHT22;24320;56.980;24.336;2022-09-17T06:57:23;13.50;99.90
28654;DHT22;24320;56.980;24.336;2022-09-17T06:59:50;13.60;99.90
28654;DHT22;24320;56.980;24.336;2022-09-17T07:02:17;13.70;99.90
28654;DHT22;24320;56.980;24.336;2022-09-17T07:04:44;13.90;99.90
28654;DHT22;24320;56.980;24.336;2022-09-17T07:07:11;14.00;99.90
28654;DHT22;24320;56.980;24.336;2022-09-17T07:09:38;14.10;99.90
28654;DHT22;24320;56.980;24.336;2022-09-17T07:12:06;14.20;99.90
28654;DHT22;24320;56.980;24.336;2022-09-17T07:14:33;14.30;99.90
28654;DHT22;24320;56.980;24.336;2022-09-17T07:17:01;14.30;99.90
28654;DHT22;24320;56.980;24.336;2022-09-17T07:19:28;14.30;99.90
28654;DHT22;24320;56.980;24.336;2022-09-17T07:21:55;14.30;99.90
28654;DHT22;24320;56.980;24.336;2022-09-17T07:24:22;14.30;99.90
28654;DHT22;24320;56.980;24.336;2022-09-17T07:26:49;14.40;99.90
28654;DHT22;24320;56.980;24.336;2022-09-17T07:29:17;14.40;99.90
28654;DHT22;24320;56.980;24.336;2022-09-17T07:31:44;14.50;99.90
28654;DHT22;24320;56.980;24.336;2022-09-17T07:34:11;14.60;99.90
28654;DHT22;24320;56.980;24.336;2022-09-17T07:36:38;14.70;99.90
28654;DHT22;24320;56.980;24.336;2022-09-17T07:39:05;14.80;99.90
28654;DHT22;24320;56.980;24.336;2022-09-17T07:41:32;14.90;99.90
28654;DHT22;24320;56.980;24.336;2022-09-17T07:44:00;14.90;99.90
28654;DHT22;24320;56.980;24.336;2022-09-17T07:46:28;15.00;99.90
28654;DHT22;24320;56.980;24.336;2022-09-17T07:48:55;15.10;99.90
28654;DHT22;24320;56.980;24.336;2022-09-17T07:51:25;15.30;99.90
28654;DHT22;24320;56.980;24.336;2022-09-17T07:53:55;15.50;99.90
28654;DHT22;24320;56.980;24.336;2022-09-17T07:56:25;15.40;99.90
28654;DHT22;24320;56.980;24.336;2022-09-17T07:58:52;15.20;99.90
28654;DHT22;24320;56.980;24.336;2022-09-17T08:01:19;15.30;99.90
28654;DHT22;24320;56.980;24.336;2022-09-17T08:03:51;15.30;99.90
28654;DHT22;24320;56.980;24.336;2022-09-17T08:06:23;15.30;99.90
28654;DHT22;24320;56.980;24.336;2022-09-17T08:08:55;15.40;99.90
28654;DHT22;24320;56.980;24.336;2022-09-17T08:11:24;15.50;99.90
28654;DHT22;24320;56.980;24.336;2022-09-17T08:14:13;15.60;99.90
28654;DHT22;24320;56.980;24.336;2022-09-17T08:16:41;15.60;99.90
28654;DHT22;24320;56.980;24.336;2022-09-17T08:19:08;15.60;99.90
28654;DHT22;24320;56.980;24.336;2022-09-17T08:21:36;15.70;99.90
28654;DHT22;24320;56.980;24.336;2022-09-17T08:24:03;15.70;99.90
28654;DHT22;24320;56.980;24.336;2022-09-17T08:26:30;15.80;99.90
28654;DHT22;24320;56.980;24.336;2022-09-17T08:28:58;15.80;99.90
28654;DHT22;24320;56.980;24.336;2022-09-17T08:31:26;15.90;99.90
28654;DHT22;24320;56.980;24.336;2022-09-17T08:33:55;16.00;99.90
28654;DHT22;24320;56.980;24.336;2022-09-17T08:36:22;16.20;99.90
28654;DHT22;24320;56.980;24.336;2022-09-17T08:38:53;16.70;99.90
28654;DHT22;24320;56.980;24.336;2022-09-17T08:46:46;16.70;99.90
28654;DHT22;24320;56.980;24.336;2022-09-17T08:52:17;16.20;99.90
28654;DHT22;24320;56.980;24.336;2022-09-17T08:57:40;16.00;99.90
28654;DHT22;24320;56.980;24.336;2022-09-17T09:00:16;16.10;99.90
28654;DHT22;24320;56.980;24.336;2022-09-17T09:05:41;16.50;99.90
28654;DHT22;24320;56.980;24.336;2022-09-17T09:08:44;16.70;99.90
28654;DHT22;24320;56.980;24.336;2022-09-17T09:11:06;16.70;99.90
28654;DHT22;24320;56.980;24.336;2022-09-17T09:13:43;16.70;99.90
28654;DHT22;24320;56.980;24.336;2022-09-17T09:16:22;16.70;99.90
28654;DHT22;24320;56.980;24.336;2022-09-17T09:19:00;16.80;99.90
28654;DHT22;24320;56.980;24.336;2022-09-17T09:22:03;17.10;99.90
28654;DHT22;24320;56.980;24.336;2022-09-17T09:24:41;17.50;99.90
28654;DHT22;24320;56.980;24.336;2022-09-17T09:32:37;17.90;99.90
28654;DHT22;24320;56.980;24.336;2022-09-17T09:35:37;17.80;99.90
28654;DHT22;24320;56.980;24.336;2022-09-17T09:40:57;17.40;99.90
28654;DHT22;24320;56.980;24.336;2022-09-17T09:57:42;17.80;99.90
28654;DHT22;24320;56.980;24.336;2022-09-17T10:00:28;18.00;99.90
28654;DHT22;24320;56.980;24.336;2022-09-17T10:03:14;17.90;99.90
28654;DHT22;24320;56.980;24.336;2022-09-17T10:08:21;17.60;99.90
28654;DHT22;24320;56.980;24.336;2022-09-17T10:13:30;17.20;99.90
28654;DHT22;24320;56.980;24.336;2022-09-17T10:16:16;17.20;99.90
28654;DHT22;24320;56.980;24.336;2022-09-17T10:18:46;17.20;99.90
28654;DHT22;24320;56.980;24.336;2022-09-17T10:21:36;17.20;99.90
28654;DHT22;24320;56.980;24.336;2022-09-17T10:24:25;17.10;99.90
28654;DHT22;24320;56.980;24.336;2022-09-17T10:27:04;17.10;99.90
28654;DHT22;24320;56.980;24.336;2022-09-17T10:29:33;17.00;99.90
28654;DHT22;24320;56.980;24.336;2022-09-17T10:32:00;16.80;99.90
28654;DHT22;24320;56.980;24.336;2022-09-17T10:34:32;16.60;99.90
28654;DHT22;24320;56.980;24.336;2022-09-17T10:37:00;16.40;99.90
28654;DHT22;24320;56.980;24.336;2022-09-17T10:39:36;16.60;99.90
28654;DHT22;24320;56.980;24.336;2022-09-17T10:42:18;16.90;99.90
28654;DHT22;24320;56.980;24.336;2022-09-17T10:44:56;17.30;99.90
28654;DHT22;24320;56.980;24.336;2022-09-17T10:47:30;17.70;99.90
28654;DHT22;24320;56.980;24.336;2022-09-17T10:50:06;17.80;99.90
28654;DHT22;24320;56.980;24.336;2022-09-17T10:52:38;17.80;99.90
28654;DHT22;24320;56.980;24.336;2022-09-17T10:55:21;18.00;99.90
28654;DHT22;24320;56.980;24.336;2022-09-17T10:58:04;18.00;99.90
28654;DHT22;24320;56.980;24.336;2022-09-17T11:04:10;17.00;99.90
28654;DHT22;24320;56.980;24.336;2022-09-17T11:15:16;15.60;99.90
28654;DHT22;24320;56.980;24.336;2022-09-17T11:20:51;15.40;99.90
28654;DHT22;24320;56.980;24.336;2022-09-17T11:23:26;15.40;99.90
28654;DHT22;24320;56.980;24.336;2022-09-17T11:34:21;17.30;99.90
28654;DHT22;24320;56.980;24.336;2022-09-17T11:37:27;17.80;99.90
28654;DHT22;24320;56.980;24.336;2022-09-17T11:40:28;18.10;99.90
28654;DHT22;24320;56.980;24.336;2022-09-17T11:43:03;18.00;99.90
28654;DHT22;24320;56.980;24.336;2022-09-17T11:45:40;17.70;99.90
28654;DHT22;24320;56.980;24.336;2022-09-17T11:48:16;17.50;99.90
28654;DHT22;24320;56.980;24.336;2022-09-17T11:50:48;17.50;99.90
28654;DHT22;24320;56.980;24.336;2022-09-17T11:56:32;17.40;99.90
28654;DHT22;24320;56.980;24.336;2022-09-17T11:59:30;17.20;99.90
28654;DHT22;24320;56.980;24.336;2022-09-17T12:08:09;17.00;99.90
28654;DHT22;24320;56.980;24.336;2022-09-17T12:10:17;17.00;99.90
28654;DHT22;24320;56.980;24.336;2022-09-17T12:13:01;16.90;99.90
28654;DHT22;24320;56.980;24.336;2022-09-17T12:15:33;16.70;99.90
28654;DHT22;24320;56.980;24.336;2022-09-17T12:20:59;16.80;99.90
28654;DHT22;24320;56.980;24.336;2022-09-17T12:23:40;16.80;99.90
28654;DHT22;24320;56.980;24.336;2022-09-17T12:46:21;16.40;99.90
28654;DHT22;24320;56.980;24.336;2022-09-17T12:56:52;16.10;99.90
28654;DHT22;24320;56.980;24.336;2022-09-17T12:59:25;16.10;99.90
28654;DHT22;24320;56.980;24.336;2022-09-17T13:02:00;16.20;99.90
28654;DHT22;24320;56.980;24.336;2022-09-17T13:16:19;15.30;99.90
28654;DHT22;24320;56.980;24.336;2022-09-17T13:22:05;14.80;99.90
28654;DHT22;24320;56.980;24.336;2022-09-17T13:24:36;14.50;99.90
28654;DHT22;24320;56.980;24.336;2022-09-17T13:27:04;14.30;99.90
28654;DHT22;24320;56.980;24.336;2022-09-17T13:37:34;13.50;99.90
28654;DHT22;24320;56.980;24.336;2022-09-17T13:40:04;13.30;99.90
28654;DHT22;24320;56.980;24.336;2022-09-17T13:42:45;13.20;99.90
28654;DHT22;24320;56.980;24.336;2022-09-17T13:45:16;13.20;99.90
28654;DHT22;24320;56.980;24.336;2022-09-17T13:47:59;13.20;99.90
28654;DHT22;24320;56.980;24.336;2022-09-17T13:50:39;13.10;99.90
28654;DHT22;24320;56.980;24.336;2022-09-17T13:55:55;13.10;99.90
28654;DHT22;24320;56.980;24.336;2022-09-17T13:58:30;13.10;99.90
28654;DHT22;24320;56.980;24.336;2022-09-17T14:01:01;13.10;99.90
28654;DHT22;24320;56.980;24.336;2022-09-17T14:37:59;14.00;99.90
28654;DHT22;24320;56.980;24.336;2022-09-17T14:40:29;14.10;99.90
28654;DHT22;24320;56.980;24.336;2022-09-17T14:42:58;14.20;99.90
28654;DHT22;24320;56.980;24.336;2022-09-17T14:45:47;14.10;99.90
28654;DHT22;24320;56.980;24.336;2022-09-17T14:48:30;14.00;99.90
28654;DHT22;24320;56.980;24.336;2022-09-17T14:53:47;14.00;99.90
28654;DHT22;24320;56.980;24.336;2022-09-17T14:56:21;14.00;99.90
28654;DHT22;24320;56.980;24.336;2022-09-17T14:58:51;13.90;99.90
28654;DHT22;24320;56.980;24.336;2022-09-17T15:01:29;13.80;99.90
28654;DHT22;24320;56.980;24.336;2022-09-17T15:06:40;13.60;99.90
28654;DHT22;24320;56.980;24.336;2022-09-17T15:09:20;13.50;99.90
28654;DHT22;24320;56.980;24.336;2022-09-17T15:11:48;13.40;99.90
28654;DHT22;24320;56.980;24.336;2022-09-17T15:14:21;13.30;99.90
28654;DHT22;24320;56.980;24.336;2022-09-17T15:16:55;13.20;99.90
28654;DHT22;24320;56.980;24.336;2022-09-17T15:19:41;13.10;99.90
28654;DHT22;24320;56.980;24.336;2022-09-17T15:22:15;13.00;99.90
28654;DHT22;24320;56.980;24.336;2022-09-17T15:24:55;12.90;99.90
28654;DHT22;24320;56.980;24.336;2022-09-17T15:27:44;12.90;99.90
28654;DHT22;24320;56.980;24.336;2022-09-17T15:30:18;12.80;99.90
28654;DHT22;24320;56.980;24.336;2022-09-17T15:32:53;12.80;99.90
28654;DHT22;24320;56.980;24.336;2022-09-17T15:35:23;12.80;99.90
28654;DHT22;24320;56.980;24.336;2022-09-17T15:37:56;12.70;99.90
28654;DHT22;24320;56.980;24.336;2022-09-17T15:40:43;12.70;99.90
28654;DHT22;24320;56.980;24.336;2022-09-17T15:45:40;12.60;99.90
28654;DHT22;24320;56.980;24.336;2022-09-17T15:50:55;12.50;99.90
28654;DHT22;24320;56.980;24.336;2022-09-17T15:53:25;12.40;99.90
28654;DHT22;24320;56.980;24.336;2022-09-17T15:56:06;12.40;99.90
28654;DHT22;24320;56.980;24.336;2022-09-17T16:08:51;12.10;99.90
28654;DHT22;24320;56.980;24.336;2022-09-17T16:11:23;12.00;99.90
28654;DHT22;24320;56.980;24.336;2022-09-17T16:13:52;11.90;99.90
28654;DHT22;24320;56.980;24.336;2022-09-17T16:16:21;11.80;99.90
28654;DHT22;24320;56.980;24.336;2022-09-17T16:18:49;11.80;99.90
28654;DHT22;24320;56.980;24.336;2022-09-17T16:21:18;11.70;99.90
28654;DHT22;24320;56.980;24.336;2022-09-17T16:23:45;11.60;99.90
28654;DHT22;24320;56.980;24.336;2022-09-17T16:26:29;11.60;99.90
28654;DHT22;24320;56.980;24.336;2022-09-17T16:29:17;11.60;99.90
28654;DHT22;24320;56.980;24.336;2022-09-17T16:31:44;11.50;99.90
28654;DHT22;24320;56.980;24.336;2022-09-17T16:34:11;11.40;99.90
28654;DHT22;24320;56.980;24.336;2022-09-17T16:36:38;11.40;99.90
28654;DHT22;24320;56.980;24.336;2022-09-17T16:39:05;11.40;99.90
28654;DHT22;24320;56.980;24.336;2022-09-17T16:41:32;11.40;99.90
28654;DHT22;24320;56.980;24.336;2022-09-17T16:43:59;11.40;99.90
28654;DHT22;24320;56.980;24.336;2022-09-17T16:46:26;11.40;99.90
28654;DHT22;24320;56.980;24.336;2022-09-17T16:48:53;11.40;99.90
28654;DHT22;24320;56.980;24.336;2022-09-17T16:51:20;11.40;99.90
28654;DHT22;24320;56.980;24.336;2022-09-17T16:53:47;11.40;99.90
28654;DHT22;24320;56.980;24.336;2022-09-17T16:56:15;11.40;99.90
28654;DHT22;24320;56.980;24.336;2022-09-17T16:58:42;11.40;99.90
28654;DHT22;24320;56.980;24.336;2022-09-17T17:01:12;11.40;99.90
28654;DHT22;24320;56.980;24.336;2022-09-17T17:03:40;11.30;99.90
28654;DHT22;24320;56.980;24.336;2022-09-17T17:06:18;11.40;99.90
28654;DHT22;24320;56.980;24.336;2022-09-17T17:08:46;11.40;99.90
28654;DHT22;24320;56.980;24.336;2022-09-17T17:11:13;11.40;99.90
28654;DHT22;24320;56.980;24.336;2022-09-17T17:13:43;11.40;99.90
28654;DHT22;24320;56.980;24.336;2022-09-17T17:16:13;11.40;99.90
28654;DHT22;24320;56.980;24.336;2022-09-17T17:18:42;11.50;99.90
28654;DHT22;24320;56.980;24.336;2022-09-17T17:21:12;11.50;99.90
28654;DHT22;24320;56.980;24.336;2022-09-17T17:23:39;11.60;99.90
28654;DHT22;24320;56.980;24.336;2022-09-17T17:26:09;11.60;99.90
28654;DHT22;24320;56.980;24.336;2022-09-17T17:28:36;11.60;99.90
28654;DHT22;24320;56.980;24.336;2022-09-17T17:31:03;11.70;99.90
28654;DHT22;24320;56.980;24.336;2022-09-17T17:33:31;11.70;99.90
28654;DHT22;24320;56.980;24.336;2022-09-17T17:35:59;11.80;99.90
28654;DHT22;24320;56.980;24.336;2022-09-17T17:38:34;11.80;99.90
28654;DHT22;24320;56.980;24.336;2022-09-17T17:41:06;11.80;99.90
28654;DHT22;24320;56.980;24.336;2022-09-17T17:43:34;11.80;99.90
28654;DHT22;24320;56.980;24.336;2022-09-17T17:46:03;11.80;99.90
28654;DHT22;24320;56.980;24.336;2022-09-17T17:48:31;11.80;99.90
28654;DHT22;24320;56.980;24.336;2022-09-17T17:51:08;11.90;99.90
28654;DHT22;24320;56.980;24.336;2022-09-17T17:53:36;11.80;99.90
28654;DHT22;24320;56.980;24.336;2022-09-17T17:56:05;11.90;99.90
28654;DHT22;24320;56.980;24.336;2022-09-17T17:58:33;11.90;99.90
28654;DHT22;24320;56.980;24.336;2022-09-17T18:01:20;11.90;99.90
28654;DHT22;24320;56.980;24.336;2022-09-17T18:03:48;11.90;99.90
28654;DHT22;24320;56.980;24.336;2022-09-17T18:06:15;11.90;99.90
28654;DHT22;24320;56.980;24.336;2022-09-17T18:08:43;11.90;99.90
28654;DHT22;24320;56.980;24.336;2022-09-17T18:11:10;12.00;99.90
28654;DHT22;24320;56.980;24.336;2022-09-17T18:13:38;12.00;99.90
28654;DHT22;24320;56.980;24.336;2022-09-17T18:16:06;11.90;99.90
28654;DHT22;24320;56.980;24.336;2022-09-17T18:18:38;12.00;99.90
28654;DHT22;24320;56.980;24.336;2022-09-17T18:21:14;12.00;99.90
28654;DHT22;24320;56.980;24.336;2022-09-17T18:23:42;12.00;99.90
28654;DHT22;24320;56.980;24.336;2022-09-17T18:26:21;12.00;99.90
28654;DHT22;24320;56.980;24.336;2022-09-17T18:28:48;11.90;99.90
28654;DHT22;24320;56.980;24.336;2022-09-17T18:34:06;12.00;99.90
28654;DHT22;24320;56.980;24.336;2022-09-17T18:36:34;12.00;99.90
28654;DHT22;24320;56.980;24.336;2022-09-17T18:39:04;12.00;99.90
28654;DHT22;24320;56.980;24.336;2022-09-17T18:41:51;12.00;99.90
28654;DHT22;24320;56.980;24.336;2022-09-17T18:44:18;12.00;99.90
28654;DHT22;24320;56.980;24.336;2022-09-17T18:49:21;11.90;99.90
28654;DHT22;24320;56.980;24.336;2022-09-17T18:51:48;11.90;99.90
28654;DHT22;24320;56.980;24.336;2022-09-17T18:54:15;11.90;99.90
28654;DHT22;24320;56.980;24.336;2022-09-17T18:56:42;12.00;99.90
28654;DHT22;24320;56.980;24.336;2022-09-17T18:59:09;12.00;99.90
28654;DHT22;24320;56.980;24.336;2022-09-17T19:01:37;12.00;99.90
28654;DHT22;24320;56.980;24.336;2022-09-17T19:04:04;11.90;99.90
28654;DHT22;24320;56.980;24.336;2022-09-17T19:06:33;11.90;99.90
28654;DHT22;24320;56.980;24.336;2022-09-17T19:09:04;11.90;99.90
28654;DHT22;24320;56.980;24.336;2022-09-17T19:11:33;11.90;99.90
28654;DHT22;24320;56.980;24.336;2022-09-17T19:14:01;11.80;99.90
28654;DHT22;24320;56.980;24.336;2022-09-17T19:16:28;11.80;99.90
28654;DHT22;24320;56.980;24.336;2022-09-17T19:18:55;11.80;99.90
28654;DHT22;24320;56.980;24.336;2022-09-17T19:21:22;11.70;99.90
28654;DHT22;24320;56.980;24.336;2022-09-17T19:23:50;11.70;99.90
28654;DHT22;24320;56.980;24.336;2022-09-17T19:26:23;11.70;99.90
28654;DHT22;24320;56.980;24.336;2022-09-17T19:28:55;11.60;99.90
28654;DHT22;24320;56.980;24.336;2022-09-17T19:31:24;11.60;99.90
28654;DHT22;24320;56.980;24.336;2022-09-17T19:33:51;11.50;99.90
28654;DHT22;24320;56.980;24.336;2022-09-17T19:36:19;11.40;99.90
28654;DHT22;24320;56.980;24.336;2022-09-17T19:38:47;11.30;99.90
28654;DHT22;24320;56.980;24.336;2022-09-17T19:41:19;11.30;99.90
28654;DHT22;24320;56.980;24.336;2022-09-17T19:43:46;11.30;99.90
28654;DHT22;24320;56.980;24.336;2022-09-17T19:46:16;11.30;99.90